Time,TemperatureF,DewpointF,PressureIn,WindDirection,WindDirectionDegrees,WindSpeedMPH,WindSpeedGustMPH,Humidity,HourlyPrecipIn,Conditions,Clouds,dailyrainin,SoftwareType,DateUTC
2013-06-15 00:00:00,53.8,49.4,29.93,East,96,0.0,0.0,85,0.00,,SKC,0.00,VWS V14.01,2013-06-15 04:00:00,
2013-06-15 00:16:00,55.9,49.8,29.94,East,96,0.0,0.0,80,0.00,,SKC,0.00,VWS V14.01,2013-06-15 04:16:00,
2013-06-15 00:21:00,55.7,50.0,29.94,East,96,0.0,0.0,81,0.00,,SKC,0.00,VWS V14.01,2013-06-15 04:21:00,
2013-06-15 00:26:00,55.4,49.7,29.94,East,96,0.0,0.0,81,0.00,,SKC,0.00,VWS V14.01,2013-06-15 04:26:00,
2013-06-15 00:31:00,55.3,49.9,29.94,East,96,0.0,0.0,82,0.00,,SKC,0.00,VWS V14.01,2013-06-15 04:31:00,
2013-06-15 00:36:00,55.1,49.7,29.94,East,96,0.0,0.0,82,0.00,,SKC,0.00,VWS V14.01,2013-06-15 04:36:00,
2013-06-15 00:41:00,54.7,49.3,29.94,East,96,0.0,0.0,82,0.00,,SKC,0.00,VWS V14.01,2013-06-15 04:41:00,
2013-06-15 00:46:00,54.4,49.3,29.93,East,96,0.0,0.0,83,0.00,,SKC,0.00,VWS V14.01,2013-06-15 04:46:00,
2013-06-15 00:52:00,54.2,49.5,29.93,East,96,0.0,0.0,84,0.00,,SKC,0.00,VWS V14.01,2013-06-15 04:52:00,
2013-06-15 00:57:00,53.9,49.2,29.93,East,96,0.0,0.0,84,0.00,,SKC,0.00,VWS V14.01,2013-06-15 04:57:00,
2013-06-15 01:00:00,52.2,48.8,29.93,East,96,0.0,0.0,88,0.00,,SKC,0.00,VWS V14.01,2013-06-15 05:00:00,
2013-06-15 01:02:00,53.6,49.2,29.93,East,96,0.0,0.0,85,0.00,,SKC,0.00,VWS V14.01,2013-06-15 05:02:00,
2013-06-15 01:07:00,53.6,49.5,29.93,East,96,0.0,0.0,86,0.00,,SKC,0.00,VWS V14.01,2013-06-15 05:07:00,
2013-06-15 01:12:00,53.8,49.7,29.93,East,96,0.0,0.0,86,0.00,,SKC,0.00,VWS V14.01,2013-06-15 05:12:00,
2013-06-15 01:17:00,53.6,49.5,29.93,East,96,0.0,0.0,86,0.00,,SKC,0.00,VWS V14.01,2013-06-15 05:17:00,
2013-06-15 01:22:00,53.5,49.7,29.93,East,96,0.0,0.0,87,0.00,,SKC,0.00,VWS V14.01,2013-06-15 05:22:00,
2013-06-15 01:27:00,53.2,49.4,29.93,East,96,0.0,0.0,87,0.00,,SKC,0.00,VWS V14.01,2013-06-15 05:27:00,
2013-06-15 01:33:00,53.1,49.7,29.93,East,96,0.0,0.0,88,0.00,,SKC,0.00,VWS V14.01,2013-06-15 05:33:00,
2013-06-15 01:38:00,52.9,49.5,29.93,East,96,0.0,0.0,88,0.00,,SKC,0.00,VWS V14.01,2013-06-15 05:38:00,
2013-06-15 01:43:00,52.6,49.2,29.93,East,96,0.0,0.0,88,0.00,,SKC,0.00,VWS V14.01,2013-06-15 05:43:00,
2013-06-15 01:48:00,52.5,49.0,29.93,East,96,0.0,0.0,88,0.00,,SKC,0.00,VWS V14.01,2013-06-15 05:48:00,
2013-06-15 01:53:00,52.2,48.8,29.93,East,96,0.0,0.0,88,0.00,,SKC,0.00,VWS V14.01,2013-06-15 05:53:00,
2013-06-15 01:58:00,52.2,48.8,29.93,East,96,0.0,0.0,88,0.00,,SKC,0.00,VWS V14.01,2013-06-15 05:58:00,
2013-06-15 02:00:00,50.7,47.6,29.92,East,96,0.0,0.0,89,0.00,,SKC,0.00,VWS V14.01,2013-06-15 06:00:00,
2013-06-15 02:03:00,52.2,49.1,29.93,East,96,0.0,0.0,89,0.00,,SKC,0.00,VWS V14.01,2013-06-15 06:03:00,
2013-06-15 02:08:00,52.2,49.1,29.93,East,96,0.0,0.0,89,0.00,,SKC,0.00,VWS V14.01,2013-06-15 06:08:00,
2013-06-15 02:13:00,52.2,49.1,29.93,East,96,0.0,0.0,89,0.00,,SKC,0.00,VWS V14.01,2013-06-15 06:13:00,
2013-06-15 02:18:00,52.3,49.2,29.92,East,96,0.0,0.0,89,0.00,,SKC,0.00,VWS V14.01,2013-06-15 06:18:00,
2013-06-15 02:24:00,52.2,49.1,29.92,East,96,0.0,0.0,89,0.00,,SKC,0.00,VWS V14.01,2013-06-15 06:24:00,
2013-06-15 02:29:00,52.0,48.9,29.92,East,96,0.0,0.0,89,0.00,,SKC,0.00,VWS V14.01,2013-06-15 06:29:00,
2013-06-15 02:34:00,51.9,48.8,29.92,East,96,0.0,0.0,89,0.00,,SKC,0.00,VWS V14.01,2013-06-15 06:34:00,
2013-06-15 02:39:00,51.9,48.8,29.92,East,96,0.0,0.0,89,0.00,,SKC,0.00,VWS V14.01,2013-06-15 06:39:00,
2013-06-15 02:44:00,51.7,48.6,29.92,East,96,0.0,0.0,89,0.00,,SKC,0.00,VWS V14.01,2013-06-15 06:44:00,
2013-06-15 02:49:00,51.3,48.2,29.92,East,96,0.0,0.0,89,0.00,,SKC,0.00,VWS V14.01,2013-06-15 06:49:00,
2013-06-15 02:54:00,51.0,47.9,29.92,East,96,0.0,0.0,89,0.00,,SKC,0.00,VWS V14.01,2013-06-15 06:54:00,
2013-06-15 02:59:00,50.7,47.6,29.92,East,96,0.0,0.0,89,0.00,,SKC,0.00,VWS V14.01,2013-06-15 06:59:00,
2013-06-15 03:00:00,49.2,46.7,29.93,East,96,0.0,0.0,91,0.00,,SKC,0.00,VWS V14.01,2013-06-15 07:00:00,
2013-06-15 03:04:00,50.5,47.4,29.92,East,96,0.0,0.0,89,0.00,,SKC,0.00,VWS V14.01,2013-06-15 07:04:00,
2013-06-15 03:09:00,50.4,47.6,29.92,East,96,0.0,0.0,90,0.00,,SKC,0.00,VWS V14.01,2013-06-15 07:09:00,
2013-06-15 03:15:00,50.1,47.3,29.92,East,96,0.0,0.0,90,0.00,,SKC,0.00,VWS V14.01,2013-06-15 07:15:00,
2013-06-15 03:20:00,49.9,47.1,29.92,East,96,0.0,0.0,90,0.00,,SKC,0.00,VWS V14.01,2013-06-15 07:20:00,
2013-06-15 03:25:00,49.9,47.1,29.92,East,96,0.0,0.0,90,0.00,,SKC,0.00,VWS V14.01,2013-06-15 07:25:00,
2013-06-15 03:30:00,49.8,47.0,29.92,East,96,0.0,0.0,90,0.00,,SKC,0.00,VWS V14.01,2013-06-15 07:30:00,
2013-06-15 03:35:00,49.6,46.8,29.92,East,96,0.0,0.0,90,0.00,,SKC,0.00,VWS V14.01,2013-06-15 07:35:00,
2013-06-15 03:40:00,49.5,46.7,29.92,East,96,0.0,0.0,90,0.00,,SKC,0.00,VWS V14.01,2013-06-15 07:40:00,
2013-06-15 03:45:00,49.5,47.0,29.92,East,96,0.0,0.0,91,0.00,,SKC,0.00,VWS V14.01,2013-06-15 07:45:00,
2013-06-15 03:50:00,49.4,46.9,29.92,East,96,0.0,0.0,91,0.00,,SKC,0.00,VWS V14.01,2013-06-15 07:50:00,
2013-06-15 03:56:00,49.2,46.7,29.92,East,96,0.0,0.0,91,0.00,,SKC,0.00,VWS V14.01,2013-06-15 07:56:00,
2013-06-15 04:00:00,49.2,47.0,29.94,East,96,0.0,0.0,92,0.00,,SKC,0.00,VWS V14.01,2013-06-15 08:00:00,
2013-06-15 04:01:00,49.2,46.7,29.93,East,96,0.0,0.0,91,0.00,,SKC,0.00,VWS V14.01,2013-06-15 08:01:00,
2013-06-15 04:06:00,49.1,46.6,29.93,East,96,0.0,0.0,91,0.00,,SKC,0.00,VWS V14.01,2013-06-15 08:06:00,
2013-06-15 04:11:00,48.9,46.4,29.93,East,96,0.0,0.0,91,0.00,,SKC,0.00,VWS V14.01,2013-06-15 08:11:00,
2013-06-15 04:16:00,49.1,46.6,29.93,East,96,0.0,0.0,91,0.00,,SKC,0.00,VWS V14.01,2013-06-15 08:16:00,
2013-06-15 04:21:00,49.5,47.3,29.93,East,96,0.0,0.0,92,0.00,,SKC,0.00,VWS V14.01,2013-06-15 08:21:00,
2013-06-15 04:26:00,49.6,47.1,29.93,East,96,0.0,0.0,91,0.00,,SKC,0.00,VWS V14.01,2013-06-15 08:26:00,
2013-06-15 04:31:00,49.5,47.0,29.94,East,96,0.0,0.0,91,0.00,,SKC,0.00,VWS V14.01,2013-06-15 08:31:00,
2013-06-15 04:37:00,49.2,46.7,29.94,East,96,0.0,0.0,91,0.00,,SKC,0.00,VWS V14.01,2013-06-15 08:37:00,
2013-06-15 04:42:00,49.2,46.7,29.94,East,96,0.0,0.0,91,0.00,,SKC,0.00,VWS V14.01,2013-06-15 08:42:00,
2013-06-15 04:47:00,49.4,47.2,29.94,East,96,0.0,0.0,92,0.00,,SKC,0.00,VWS V14.01,2013-06-15 08:47:00,
2013-06-15 04:52:00,49.4,47.2,29.94,East,96,0.0,0.0,92,0.00,,SKC,0.00,VWS V14.01,2013-06-15 08:52:00,
2013-06-15 04:57:00,49.2,47.0,29.94,East,96,0.0,0.0,92,0.00,,SKC,0.00,VWS V14.01,2013-06-15 08:57:00,
2013-06-15 05:00:00,47.4,45.2,29.96,East,96,0.0,0.0,92,0.00,,SKC,0.00,VWS V14.01,2013-06-15 09:00:00,
2013-06-15 05:02:00,49.1,46.9,29.94,East,96,0.0,0.0,92,0.00,,SKC,0.00,VWS V14.01,2013-06-15 09:02:00,
2013-06-15 05:07:00,48.9,46.4,29.94,East,96,0.0,0.0,91,0.00,,SKC,0.00,VWS V14.01,2013-06-15 09:07:00,
2013-06-15 05:12:00,48.6,46.1,29.94,East,96,0.0,0.0,91,0.00,,SKC,0.00,VWS V14.01,2013-06-15 09:12:00,
2013-06-15 05:18:00,48.5,46.3,29.94,East,96,0.0,0.0,92,0.00,,SKC,0.00,VWS V14.01,2013-06-15 09:18:00,
2013-06-15 05:23:00,48.2,45.7,29.94,East,96,0.0,0.0,91,0.00,,SKC,0.00,VWS V14.01,2013-06-15 09:23:00,
2013-06-15 05:28:00,48.0,45.8,29.94,East,96,0.0,0.0,92,0.00,,SKC,0.00,VWS V14.01,2013-06-15 09:28:00,
2013-06-15 05:33:00,48.0,45.8,29.95,East,96,0.0,0.0,92,0.00,,SKC,0.00,VWS V14.01,2013-06-15 09:33:00,
2013-06-15 05:38:00,48.0,45.8,29.95,East,96,0.0,0.0,92,0.00,,SKC,0.00,VWS V14.01,2013-06-15 09:38:00,
2013-06-15 05:43:00,47.9,45.7,29.95,East,96,0.0,0.0,92,0.00,,SKC,0.00,VWS V14.01,2013-06-15 09:43:00,
2013-06-15 05:48:00,47.7,45.5,29.96,East,96,0.0,0.0,92,0.00,,SKC,0.00,VWS V14.01,2013-06-15 09:48:00,
2013-06-15 05:53:00,47.6,45.4,29.96,East,96,0.0,0.0,92,0.00,,SKC,0.00,VWS V14.01,2013-06-15 09:53:00,
2013-06-15 05:58:00,47.4,45.2,29.96,East,96,0.0,0.0,92,0.00,,SKC,0.00,VWS V14.01,2013-06-15 09:58:00,
2013-06-15 06:00:00,48.6,46.4,29.96,East,96,0.0,0.0,92,0.00,,SKC,0.00,VWS V14.01,2013-06-15 10:00:00,
2013-06-15 06:03:00,47.4,45.2,29.96,East,96,0.0,0.0,92,0.00,,SKC,0.00,VWS V14.01,2013-06-15 10:03:00,
2013-06-15 06:09:00,47.4,45.2,29.96,East,96,0.0,0.0,92,0.00,,SKC,0.00,VWS V14.01,2013-06-15 10:09:00,
2013-06-15 06:14:00,47.4,45.2,29.96,East,96,0.0,0.0,92,0.00,,SKC,0.00,VWS V14.01,2013-06-15 10:14:00,
2013-06-15 06:19:00,47.4,45.2,29.96,East,96,0.0,0.0,92,0.00,,SKC,0.00,VWS V14.01,2013-06-15 10:19:00,
2013-06-15 06:24:00,47.4,45.2,29.96,East,96,0.0,0.0,92,0.00,,SKC,0.00,VWS V14.01,2013-06-15 10:24:00,
2013-06-15 06:29:00,47.7,45.5,29.96,East,96,0.0,0.0,92,0.00,,SKC,0.00,VWS V14.01,2013-06-15 10:29:00,
2013-06-15 06:34:00,47.9,45.7,29.96,East,96,0.0,0.0,92,0.00,,SKC,0.00,VWS V14.01,2013-06-15 10:34:00,
2013-06-15 06:39:00,48.0,45.8,29.96,East,96,0.0,0.0,92,0.00,,SKC,0.00,VWS V14.01,2013-06-15 10:39:00,
2013-06-15 06:44:00,48.0,45.8,29.96,East,96,0.0,0.0,92,0.00,,SKC,0.00,VWS V14.01,2013-06-15 10:44:00,
2013-06-15 06:49:00,48.3,46.1,29.97,East,96,0.0,0.0,92,0.00,,SKC,0.00,VWS V14.01,2013-06-15 10:49:00,
2013-06-15 06:55:00,48.5,46.3,29.97,East,96,0.0,0.0,92,0.00,,SKC,0.00,VWS V14.01,2013-06-15 10:55:00,
2013-06-15 07:00:00,48.6,46.4,29.96,East,96,0.0,0.0,92,0.00,,SKC,0.00,VWS V14.01,2013-06-15 11:00:00,
2013-06-15 07:05:00,48.9,47.0,29.96,East,96,0.0,0.0,93,0.00,,SKC,0.00,VWS V14.01,2013-06-15 11:05:00,
2013-06-15 07:10:00,48.9,46.7,29.96,East,96,0.0,0.0,92,0.00,,SKC,0.00,VWS V14.01,2013-06-15 11:10:00,
2013-06-15 07:15:00,48.9,46.7,29.97,East,96,0.0,0.0,92,0.00,,SKC,0.00,VWS V14.01,2013-06-15 11:15:00,
2013-06-15 07:20:00,49.2,47.3,29.97,East,96,0.0,0.0,93,0.00,,SKC,0.00,VWS V14.01,2013-06-15 11:20:00,
2013-06-15 07:25:00,49.5,47.6,29.97,East,96,0.0,0.0,93,0.00,,SKC,0.00,VWS V14.01,2013-06-15 11:25:00,
2013-06-15 07:30:00,49.6,47.7,29.98,East,96,0.0,0.0,93,0.00,,SKC,0.00,VWS V14.01,2013-06-15 11:30:00,
2013-06-15 07:36:00,50.1,48.2,29.98,East,96,0.0,0.0,93,0.00,,SKC,0.00,VWS V14.01,2013-06-15 11:36:00,
2013-06-15 07:41:00,50.4,48.5,29.98,East,96,0.0,0.0,93,0.00,,SKC,0.00,VWS V14.01,2013-06-15 11:41:00,
2013-06-15 07:46:00,50.7,48.8,29.99,East,96,0.0,0.0,93,0.00,,SKC,0.00,VWS V14.01,2013-06-15 11:46:00,
2013-06-15 07:51:00,51.0,49.0,29.99,East,96,0.0,0.0,93,0.00,,SKC,0.00,VWS V14.01,2013-06-15 11:51:00,
2013-06-15 07:56:00,51.6,49.7,29.99,East,96,0.0,0.0,93,0.00,,SKC,0.00,VWS V14.01,2013-06-15 11:56:00,
2013-06-15 08:00:00,58.4,55.5,30.00,East,96,0.0,4.0,90,0.00,,SKC,0.00,VWS V14.01,2013-06-15 12:00:00,
2013-06-15 08:01:00,52.2,50.2,29.99,East,96,0.0,0.0,93,0.00,,SKC,0.00,VWS V14.01,2013-06-15 12:01:00,
2013-06-15 08:06:00,52.9,50.9,29.99,East,96,0.0,0.0,93,0.00,,SKC,0.00,VWS V14.01,2013-06-15 12:06:00,
2013-06-15 08:11:00,53.5,51.5,29.99,East,96,0.0,0.0,93,0.00,,SKC,0.00,VWS V14.01,2013-06-15 12:11:00,
2013-06-15 08:17:00,53.9,51.9,30.00,East,96,0.0,0.0,93,0.00,,SKC,0.00,VWS V14.01,2013-06-15 12:17:00,
2013-06-15 08:22:00,54.4,52.4,30.00,East,96,0.0,0.0,93,0.00,,SKC,0.00,VWS V14.01,2013-06-15 12:22:00,
2013-06-15 08:27:00,55.0,53.0,30.00,East,96,0.0,0.0,93,0.00,,SKC,0.00,VWS V14.01,2013-06-15 12:27:00,
2013-06-15 08:32:00,55.7,53.7,30.00,East,96,0.0,0.0,93,0.00,,SKC,0.00,VWS V14.01,2013-06-15 12:32:00,
2013-06-15 08:37:00,56.2,54.2,30.00,East,96,0.0,0.0,93,0.00,,SKC,0.00,VWS V14.01,2013-06-15 12:37:00,
2013-06-15 08:42:00,56.3,54.0,30.00,East,96,0.0,0.0,92,0.00,,SKC,0.00,VWS V14.01,2013-06-15 12:42:00,
2013-06-15 08:47:00,56.7,54.4,30.00,East,96,0.0,0.0,92,0.00,,SKC,0.00,VWS V14.01,2013-06-15 12:47:00,
2013-06-15 08:52:00,57.3,54.7,30.00,East,96,0.0,0.0,91,0.00,,SKC,0.00,VWS V14.01,2013-06-15 12:52:00,
2013-06-15 08:58:00,58.1,55.5,30.00,East,96,0.0,0.0,91,0.00,,SKC,0.00,VWS V14.01,2013-06-15 12:58:00,
2013-06-15 09:00:00,66.0,54.3,29.99,NNE,25,0.0,5.0,66,0.00,,SKC,0.00,VWS V14.01,2013-06-15 13:00:00,
2013-06-15 09:03:00,58.7,55.5,30.00,East,96,0.0,0.0,89,0.00,,SKC,0.00,VWS V14.01,2013-06-15 13:03:00,
2013-06-15 09:08:00,59.6,56.0,30.00,East,96,0.0,0.0,88,0.00,,SKC,0.00,VWS V14.01,2013-06-15 13:08:00,
2013-06-15 09:13:00,60.5,56.3,30.00,East,96,0.0,0.0,86,0.00,,SKC,0.00,VWS V14.01,2013-06-15 13:13:00,
2013-06-15 09:18:00,61.6,56.4,30.00,East,96,0.0,0.0,83,0.00,,SKC,0.00,VWS V14.01,2013-06-15 13:18:00,
2013-06-15 09:23:00,62.1,55.9,30.00,East,96,1.0,4.0,80,0.00,,SKC,0.00,VWS V14.01,2013-06-15 13:23:00,
2013-06-15 09:28:00,62.7,56.5,30.00,East,96,0.0,4.0,80,0.00,,SKC,0.00,VWS V14.01,2013-06-15 13:28:00,
2013-06-15 09:33:00,63.4,55.7,30.00,ENE,65,0.0,4.0,76,0.00,,SKC,0.00,VWS V14.01,2013-06-15 13:33:00,
2013-06-15 09:38:00,63.2,54.4,30.00,NNE,25,1.0,5.0,73,0.00,,SKC,0.00,VWS V14.01,2013-06-15 13:38:00,
2013-06-15 09:44:00,63.5,53.5,30.00,NNE,25,0.0,5.0,70,0.00,,SKC,0.00,VWS V14.01,2013-06-15 13:44:00,
2013-06-15 09:49:00,64.3,53.9,30.00,NNE,25,0.0,5.0,69,0.00,,SKC,0.00,VWS V14.01,2013-06-15 13:49:00,
2013-06-15 09:54:00,65.0,54.6,30.00,NNE,25,0.0,5.0,69,0.00,,SKC,0.00,VWS V14.01,2013-06-15 13:54:00,
2013-06-15 09:59:00,65.8,55.4,30.00,NNE,25,0.0,5.0,69,0.00,,SKC,0.00,VWS V14.01,2013-06-15 13:59:00,
2013-06-15 10:00:00,70.4,54.5,29.98,North,350,0.0,6.0,57,0.00,,SKC,0.00,VWS V14.01,2013-06-15 14:00:00,
2013-06-15 10:04:00,66.3,53.3,29.99,NNE,25,0.0,5.0,63,0.00,,SKC,0.00,VWS V14.01,2013-06-15 14:04:00,
2013-06-15 10:09:00,66.6,53.6,29.99,NNE,25,0.0,5.0,63,0.00,,SKC,0.00,VWS V14.01,2013-06-15 14:09:00,
2013-06-15 10:14:00,67.1,53.2,29.99,NNE,26,1.0,5.0,61,0.00,,SKC,0.00,VWS V14.01,2013-06-15 14:14:00,
2013-06-15 10:19:00,66.9,53.0,29.99,NNE,26,0.0,5.0,61,0.00,,SKC,0.00,VWS V14.01,2013-06-15 14:19:00,
2013-06-15 10:25:00,67.1,54.1,29.99,NNE,26,0.0,5.0,63,0.00,,SKC,0.00,VWS V14.01,2013-06-15 14:25:00,
2013-06-15 10:30:00,67.3,54.3,29.98,North,350,0.0,6.0,63,0.00,,SKC,0.00,VWS V14.01,2013-06-15 14:30:00,
2013-06-15 10:35:00,67.8,54.3,29.98,North,350,0.0,6.0,62,0.00,,SKC,0.00,VWS V14.01,2013-06-15 14:35:00,
2013-06-15 10:40:00,68.4,54.0,29.98,North,350,0.0,6.0,60,0.00,,SKC,0.00,VWS V14.01,2013-06-15 14:40:00,
2013-06-15 10:45:00,68.8,54.4,29.98,North,350,0.0,6.0,60,0.00,,SKC,0.00,VWS V14.01,2013-06-15 14:45:00,
2013-06-15 10:50:00,69.3,54.4,29.98,North,350,2.0,6.0,59,0.00,,SKC,0.00,VWS V14.01,2013-06-15 14:50:00,
2013-06-15 10:55:00,69.6,53.2,29.98,North,350,0.0,6.0,56,0.00,,SKC,0.00,VWS V14.01,2013-06-15 14:55:00,
2013-06-15 11:00:00,70.4,54.5,29.98,North,350,0.0,6.0,57,0.00,,SKC,0.00,VWS V14.01,2013-06-15 15:00:00,
2013-06-15 11:05:00,71.1,54.6,29.98,North,350,0.0,0.0,56,0.00,,SKC,0.00,VWS V14.01,2013-06-15 15:05:00,
2013-06-15 11:11:00,71.5,54.5,29.98,North,350,0.0,0.0,55,0.00,,SKC,0.00,VWS V14.01,2013-06-15 15:11:00,
2013-06-15 11:16:00,71.5,55.0,29.98,North,350,0.0,0.0,56,0.00,,SKC,0.00,VWS V14.01,2013-06-15 15:16:00,
2013-06-15 11:21:00,71.5,54.5,29.98,North,350,0.0,4.0,55,0.00,,SKC,0.00,VWS V14.01,2013-06-15 15:21:00,
2013-06-15 11:26:00,71.6,54.6,29.98,North,350,0.0,4.0,55,0.00,,SKC,0.00,VWS V14.01,2013-06-15 15:26:00,
2013-06-15 11:31:00,72.1,51.9,29.97,ESE,107,0.0,5.0,49,0.00,,SKC,0.00,VWS V14.01,2013-06-15 15:31:00,
2013-06-15 11:36:00,72.3,51.5,29.97,ESE,107,0.0,5.0,48,0.00,,SKC,0.00,VWS V14.01,2013-06-15 15:36:00,
2013-06-15 11:41:00,72.8,54.2,29.97,ESE,107,0.0,5.0,52,0.00,,SKC,0.00,VWS V14.01,2013-06-15 15:41:00,
2013-06-15 11:46:00,73.3,52.5,29.96,ENE,76,0.0,7.0,48,0.00,,SKC,0.00,VWS V14.01,2013-06-15 15:46:00,
2013-06-15 11:52:00,73.9,54.1,29.96,ENE,76,4.0,7.0,50,0.00,,SKC,0.00,VWS V14.01,2013-06-15 15:52:00,
2013-06-15 11:57:00,74.2,55.5,29.96,ENE,75,2.0,7.0,52,0.00,,SKC,0.00,VWS V14.01,2013-06-15 15:57:00,
2013-06-15 12:00:00,74.6,50.7,29.96,ENE,66,2.0,10.0,43,0.00,,SKC,0.00,VWS V14.01,2013-06-15 16:00:00,
2013-06-15 12:02:00,73.7,51.1,29.96,ENE,78,0.0,0.0,45,0.00,,SKC,0.00,VWS V14.01,2013-06-15 16:02:00,
2013-06-15 12:07:00,73.9,53.0,29.96,ENE,78,0.0,0.0,48,0.00,,SKC,0.00,VWS V14.01,2013-06-15 16:07:00,
2013-06-15 12:12:00,74.2,53.3,29.96,ENE,78,0.0,3.0,48,0.00,,SKC,0.00,VWS V14.01,2013-06-15 16:12:00,
2013-06-15 12:17:00,74.0,51.3,29.97,NNW,336,0.0,6.0,45,0.00,,SKC,0.00,VWS V14.01,2013-06-15 16:17:00,
2013-06-15 12:22:00,74.2,49.7,29.97,East,91,0.0,6.0,42,0.00,,SKC,0.00,VWS V14.01,2013-06-15 16:22:00,
2013-06-15 12:27:00,73.9,49.4,29.97,East,82,7.0,9.0,42,0.00,,SKC,0.00,VWS V14.01,2013-06-15 16:27:00,
2013-06-15 12:32:00,73.7,49.2,29.96,East,96,4.0,9.0,42,0.00,,SKC,0.00,VWS V14.01,2013-06-15 16:32:00,
2013-06-15 12:38:00,73.9,48.7,29.96,ENE,75,1.0,9.0,41,0.00,,SKC,0.00,VWS V14.01,2013-06-15 16:38:00,
2013-06-15 12:43:00,73.7,44.4,29.96,East,98,7.0,9.0,35,0.00,,SKC,0.00,VWS V14.01,2013-06-15 16:43:00,
2013-06-15 12:48:00,73.5,47.7,29.96,ENE,78,2.0,10.0,40,0.00,,SKC,0.00,VWS V14.01,2013-06-15 16:48:00,
2013-06-15 12:53:00,74.0,48.2,29.96,ENE,78,0.0,10.0,40,0.00,,SKC,0.00,VWS V14.01,2013-06-15 16:53:00,
2013-06-15 12:58:00,74.4,48.5,29.96,SE,128,0.0,10.0,40,0.00,,SKC,0.00,VWS V14.01,2013-06-15 16:58:00,
2013-06-15 13:00:00,76.7,49.2,29.93,WNW,301,0.0,9.0,38,0.00,,SKC,0.00,VWS V14.01,2013-06-15 17:00:00,
2013-06-15 13:03:00,74.7,48.1,29.96,ENE,66,4.0,5.0,39,0.00,,SKC,0.00,VWS V14.01,2013-06-15 17:03:00,
2013-06-15 13:08:00,75.1,51.1,29.96,North,360,0.0,5.0,43,0.00,,SKC,0.00,VWS V14.01,2013-06-15 17:08:00,
2013-06-15 13:13:00,75.8,51.7,29.96,SSE,149,0.0,5.0,43,0.00,,SKC,0.00,VWS V14.01,2013-06-15 17:13:00,
2013-06-15 13:18:00,76.0,53.8,29.95,SSE,149,0.0,5.0,46,0.00,,SKC,0.00,VWS V14.01,2013-06-15 17:18:00,
2013-06-15 13:24:00,75.4,50.7,29.95,North,5,2.0,9.0,42,0.00,,SKC,0.00,VWS V14.01,2013-06-15 17:24:00,
2013-06-15 13:29:00,75.1,52.3,29.95,NNW,331,0.0,9.0,45,0.00,,SKC,0.00,VWS V14.01,2013-06-15 17:29:00,
2013-06-15 13:34:00,74.9,49.6,29.94,NW,323,0.0,9.0,41,0.00,,SKC,0.00,VWS V14.01,2013-06-15 17:34:00,
2013-06-15 13:39:00,75.3,53.1,29.94,NW,321,0.0,9.0,46,0.00,,SKC,0.00,VWS V14.01,2013-06-15 17:39:00,
2013-06-15 13:44:00,75.3,53.7,29.94,WSW,244,0.0,9.0,47,0.00,,SKC,0.00,VWS V14.01,2013-06-15 17:44:00,
2013-06-15 13:49:00,76.0,51.9,29.94,ENE,71,6.0,9.0,43,0.00,,SKC,0.00,VWS V14.01,2013-06-15 17:49:00,
2013-06-15 13:54:00,76.5,50.4,29.94,ENE,71,0.0,9.0,40,0.00,,SKC,0.00,VWS V14.01,2013-06-15 17:54:00,
2013-06-15 13:59:00,76.7,50.6,29.93,WNW,301,0.0,9.0,40,0.00,,SKC,0.00,VWS V14.01,2013-06-15 17:59:00,
2013-06-15 14:00:00,75.8,51.1,29.91,WNW,290,0.0,6.0,42,0.00,,SKC,0.00,VWS V14.01,2013-06-15 18:00:00,
2013-06-15 14:04:00,76.3,50.9,29.93,NNW,335,0.0,5.0,41,0.00,,SKC,0.00,VWS V14.01,2013-06-15 18:04:00,
2013-06-15 14:10:00,76.1,50.7,29.93,NNW,333,0.0,5.0,41,0.00,,SKC,0.00,VWS V14.01,2013-06-15 18:10:00,
2013-06-15 14:15:00,75.6,51.5,29.93,NNW,333,0.0,5.0,43,0.00,,SKC,0.00,VWS V14.01,2013-06-15 18:15:00,
2013-06-15 14:20:00,75.3,51.3,29.93,NNW,333,0.0,5.0,43,0.00,,SKC,0.00,VWS V14.01,2013-06-15 18:20:00,
2013-06-15 14:25:00,76.1,54.4,29.93,NNW,333,0.0,5.0,47,0.00,,SKC,0.00,VWS V14.01,2013-06-15 18:25:00,
2013-06-15 14:30:00,76.3,50.9,29.93,North,5,0.0,6.0,41,0.00,,SKC,0.00,VWS V14.01,2013-06-15 18:30:00,
2013-06-15 14:35:00,76.5,53.6,29.93,North,5,0.0,6.0,45,0.00,,SKC,0.00,VWS V14.01,2013-06-15 18:35:00,
2013-06-15 14:40:00,76.3,48.8,29.93,North,5,0.0,6.0,38,0.00,,SKC,0.00,VWS V14.01,2013-06-15 18:40:00,
2013-06-15 14:45:00,76.5,48.3,29.91,North,5,2.0,6.0,37,0.00,,SKC,0.00,VWS V14.01,2013-06-15 18:45:00,
2013-06-15 14:50:00,76.7,51.9,29.91,NE,44,0.0,6.0,42,0.00,,SKC,0.00,VWS V14.01,2013-06-15 18:50:00,
2013-06-15 14:56:00,76.1,50.7,29.91,WNW,290,0.0,6.0,41,0.00,,SKC,0.00,VWS V14.01,2013-06-15 18:56:00,
2013-06-15 15:00:00,77.2,51.0,29.91,NNE,19,0.0,8.0,40,0.00,,SKC,0.00,VWS V14.01,2013-06-15 19:00:00,
2013-06-15 15:01:00,75.8,51.1,29.91,WNW,290,0.0,0.0,42,0.00,,SKC,0.00,VWS V14.01,2013-06-15 19:01:00,
2013-06-15 15:06:00,75.8,51.1,29.91,WNW,290,0.0,1.0,42,0.00,,SKC,0.00,VWS V14.01,2013-06-15 19:06:00,
2013-06-15 15:11:00,76.0,49.3,29.91,WNW,291,0.0,6.0,39,0.00,,SKC,0.00,VWS V14.01,2013-06-15 19:11:00,
2013-06-15 15:16:00,76.3,50.2,29.92,NW,315,5.0,8.0,40,0.00,,SKC,0.00,VWS V14.01,2013-06-15 19:16:00,
2013-06-15 15:21:00,76.1,50.7,29.92,WNW,303,0.0,8.0,41,0.00,,SKC,0.00,VWS V14.01,2013-06-15 19:21:00,
2013-06-15 15:26:00,76.5,50.4,29.92,WNW,300,0.0,8.0,40,0.00,,SKC,0.00,VWS V14.01,2013-06-15 19:26:00,
2013-06-15 15:31:00,76.8,52.6,29.91,WNW,299,0.0,8.0,43,0.00,,SKC,0.00,VWS V14.01,2013-06-15 19:31:00,
2013-06-15 15:37:00,76.8,50.0,29.91,NW,321,0.0,8.0,39,0.00,,SKC,0.00,VWS V14.01,2013-06-15 19:37:00,
2013-06-15 15:42:00,77.6,52.1,29.91,NW,323,0.0,8.0,41,0.00,,SKC,0.00,VWS V14.01,2013-06-15 19:42:00,
2013-06-15 15:47:00,78.1,53.2,29.91,North,11,0.0,8.0,42,0.00,,SKC,0.00,VWS V14.01,2013-06-15 19:47:00,
2013-06-15 15:52:00,77.6,52.1,29.91,ENE,77,0.0,8.0,41,0.00,,SKC,0.00,VWS V14.01,2013-06-15 19:52:00,
2013-06-15 15:57:00,77.6,50.7,29.91,NNE,19,0.0,8.0,39,0.00,,SKC,0.00,VWS V14.01,2013-06-15 19:57:00,
2013-06-15 16:00:00,77.6,52.1,29.91,NNE,15,0.0,7.0,41,0.00,,SKC,0.00,VWS V14.01,2013-06-15 20:00:00,
2013-06-15 16:02:00,77.0,52.2,29.91,NNE,19,0.0,0.0,42,0.00,,SKC,0.00,VWS V14.01,2013-06-15 20:02:00,
2013-06-15 16:07:00,76.5,50.4,29.91,NNE,25,0.0,5.0,40,0.00,,SKC,0.00,VWS V14.01,2013-06-15 20:07:00,
2013-06-15 16:12:00,76.7,53.8,29.91,NNE,25,0.0,5.0,45,0.00,,SKC,0.00,VWS V14.01,2013-06-15 20:12:00,
2013-06-15 16:17:00,77.0,52.8,29.91,NW,309,0.0,6.0,43,0.00,,SKC,0.00,VWS V14.01,2013-06-15 20:17:00,
2013-06-15 16:23:00,77.0,52.8,29.91,NW,309,0.0,6.0,43,0.00,,SKC,0.00,VWS V14.01,2013-06-15 20:23:00,
2013-06-15 16:28:00,77.2,50.3,29.91,NW,309,0.0,6.0,39,0.00,,SKC,0.00,VWS V14.01,2013-06-15 20:28:00,
2013-06-15 16:33:00,77.4,50.5,29.91,NW,310,0.0,6.0,39,0.00,,SKC,0.00,VWS V14.01,2013-06-15 20:33:00,
2013-06-15 16:38:00,77.2,53.0,29.91,NW,310,0.0,6.0,43,0.00,,SKC,0.00,VWS V14.01,2013-06-15 20:38:00,
2013-06-15 16:43:00,77.2,52.4,29.91,NW,310,0.0,6.0,42,0.00,,SKC,0.00,VWS V14.01,2013-06-15 20:43:00,
2013-06-15 16:48:00,77.4,53.2,29.91,NW,314,0.0,6.0,43,0.00,,SKC,0.00,VWS V14.01,2013-06-15 20:48:00,
2013-06-15 16:53:00,77.7,52.2,29.91,NW,318,0.0,7.0,41,0.00,,SKC,0.00,VWS V14.01,2013-06-15 20:53:00,
2013-06-15 16:58:00,77.7,52.2,29.91,NNE,15,4.0,7.0,41,0.00,,SKC,0.00,VWS V14.01,2013-06-15 20:58:00,
2013-06-15 17:00:00,74.6,53.6,29.92,North,355,0.0,8.0,48,0.00,,SKC,0.00,VWS V14.01,2013-06-15 21:00:00,
2013-06-15 17:03:00,77.4,51.2,29.91,ENE,64,0.0,6.0,40,0.00,,SKC,0.00,VWS V14.01,2013-06-15 21:03:00,
2013-06-15 17:09:00,77.2,51.0,29.91,ENE,69,0.0,6.0,40,0.00,,SKC,0.00,VWS V14.01,2013-06-15 21:09:00,
2013-06-15 17:14:00,77.0,51.5,29.91,NW,316,1.0,8.0,41,0.00,,SKC,0.00,VWS V14.01,2013-06-15 21:14:00,
2013-06-15 17:19:00,76.7,51.2,29.92,ENE,57,0.0,8.0,41,0.00,,SKC,0.00,VWS V14.01,2013-06-15 21:19:00,
2013-06-15 17:24:00,76.3,52.8,29.92,NE,45,0.0,8.0,44,0.00,,SKC,0.00,VWS V14.01,2013-06-15 21:24:00,
2013-06-15 17:29:00,76.0,53.2,29.92,North,355,0.0,8.0,45,0.00,,SKC,0.00,VWS V14.01,2013-06-15 21:29:00,
2013-06-15 17:34:00,75.8,52.4,29.92,NW,320,0.0,8.0,44,0.00,,SKC,0.00,VWS V14.01,2013-06-15 21:34:00,
2013-06-15 17:39:00,75.3,52.5,29.92,North,355,0.0,8.0,45,0.00,,SKC,0.00,VWS V14.01,2013-06-15 21:39:00,
2013-06-15 17:44:00,74.9,53.9,29.92,NNE,15,0.0,8.0,48,0.00,,SKC,0.00,VWS V14.01,2013-06-15 21:44:00,
2013-06-15 17:49:00,74.7,53.2,29.92,North,355,0.0,8.0,47,0.00,,SKC,0.00,VWS V14.01,2013-06-15 21:49:00,
2013-06-15 17:54:00,74.6,53.6,29.92,North,355,0.0,8.0,48,0.00,,SKC,0.00,VWS V14.01,2013-06-15 21:54:00,
2013-06-15 17:59:00,74.6,52.5,29.92,North,355,0.0,8.0,46,0.00,,SKC,0.00,VWS V14.01,2013-06-15 21:59:00,
2013-06-15 18:00:00,72.7,54.6,29.91,NNE,17,0.0,6.0,53,0.00,,SKC,0.00,VWS V14.01,2013-06-15 22:00:00,
2013-06-15 18:05:00,74.4,53.5,29.92,North,355,6.0,6.0,48,0.00,,SKC,0.00,VWS V14.01,2013-06-15 22:05:00,
2013-06-15 18:10:00,74.2,53.3,29.92,North,355,0.0,6.0,48,0.00,,SKC,0.00,VWS V14.01,2013-06-15 22:10:00,
2013-06-15 18:15:00,74.2,54.4,29.92,North,355,0.0,6.0,50,0.00,,SKC,0.00,VWS V14.01,2013-06-15 22:15:00,
2013-06-15 18:20:00,74.2,53.3,29.92,North,360,2.0,6.0,48,0.00,,SKC,0.00,VWS V14.01,2013-06-15 22:20:00,
2013-06-15 18:25:00,74.0,54.7,29.92,North,360,0.0,6.0,51,0.00,,SKC,0.00,VWS V14.01,2013-06-15 22:25:00,
2013-06-15 18:30:00,73.9,54.7,29.91,NE,35,0.0,6.0,51,0.00,,SKC,0.00,VWS V14.01,2013-06-15 22:30:00,
2013-06-15 18:35:00,73.7,55.0,29.91,NE,35,0.0,6.0,52,0.00,,SKC,0.00,VWS V14.01,2013-06-15 22:35:00,
2013-06-15 18:40:00,73.5,53.7,29.91,NNE,26,0.0,6.0,50,0.00,,SKC,0.00,VWS V14.01,2013-06-15 22:40:00,
2013-06-15 18:45:00,73.3,54.6,29.92,NNE,26,0.0,6.0,52,0.00,,SKC,0.00,VWS V14.01,2013-06-15 22:45:00,
2013-06-15 18:51:00,73.2,54.5,29.92,NNE,22,0.0,6.0,52,0.00,,SKC,0.00,VWS V14.01,2013-06-15 22:51:00,
2013-06-15 18:56:00,73.0,54.4,29.92,NNE,22,0.0,6.0,52,0.00,,SKC,0.00,VWS V14.01,2013-06-15 22:56:00,
2013-06-15 19:00:00,69.9,54.9,29.90,North,11,0.0,6.0,59,0.00,,SKC,0.00,VWS V14.01,2013-06-15 23:00:00,
2013-06-15 19:01:00,72.7,54.6,29.91,NNE,17,0.0,0.0,53,0.00,,SKC,0.00,VWS V14.01,2013-06-15 23:01:00,
2013-06-15 19:06:00,72.5,53.9,29.91,NNE,15,0.0,4.0,52,0.00,,SKC,0.00,VWS V14.01,2013-06-15 23:06:00,
2013-06-15 19:11:00,72.1,54.6,29.91,NNE,15,4.0,4.0,54,0.00,,SKC,0.00,VWS V14.01,2013-06-15 23:11:00,
2013-06-15 19:16:00,71.8,54.8,29.91,NNE,15,0.0,4.0,55,0.00,,SKC,0.00,VWS V14.01,2013-06-15 23:16:00,
2013-06-15 19:21:00,71.5,54.5,29.91,NNE,15,0.0,5.0,55,0.00,,SKC,0.00,VWS V14.01,2013-06-15 23:21:00,
2013-06-15 19:26:00,71.3,55.3,29.91,North,11,0.0,6.0,57,0.00,,SKC,0.00,VWS V14.01,2013-06-15 23:26:00,
2013-06-15 19:32:00,70.9,54.9,29.91,North,11,0.0,6.0,57,0.00,,SKC,0.00,VWS V14.01,2013-06-15 23:32:00,
2013-06-15 19:37:00,70.6,55.1,29.91,North,11,0.0,6.0,58,0.00,,SKC,0.00,VWS V14.01,2013-06-15 23:37:00,
2013-06-15 19:42:00,70.4,55.4,29.91,North,11,0.0,6.0,59,0.00,,SKC,0.00,VWS V14.01,2013-06-15 23:42:00,
2013-06-15 19:47:00,70.3,54.8,29.90,North,11,0.0,6.0,58,0.00,,SKC,0.00,VWS V14.01,2013-06-15 23:47:00,
2013-06-15 19:52:00,70.1,54.7,29.90,North,11,0.0,6.0,58,0.00,,SKC,0.00,VWS V14.01,2013-06-15 23:52:00,
2013-06-15 19:57:00,69.9,54.5,29.90,North,11,0.0,6.0,58,0.00,,SKC,0.00,VWS V14.01,2013-06-15 23:57:00,
2013-06-15 20:00:00,68.4,56.2,29.87,North,11,0.0,0.0,65,0.00,,SKC,0.00,VWS V14.01,2013-06-16 00:00:00,
2013-06-15 20:02:00,69.8,54.8,29.90,North,11,0.0,0.0,59,0.00,,SKC,0.00,VWS V14.01,2013-06-16 00:02:00,
2013-06-15 20:07:00,69.6,54.7,29.90,North,11,0.0,0.0,59,0.00,,SKC,0.00,VWS V14.01,2013-06-16 00:07:00,
2013-06-15 20:12:00,69.4,54.5,29.90,North,11,0.0,0.0,59,0.00,,SKC,0.00,VWS V14.01,2013-06-16 00:12:00,
2013-06-15 20:18:00,69.3,54.8,29.89,North,11,0.0,0.0,60,0.00,,SKC,0.00,VWS V14.01,2013-06-16 00:18:00,
2013-06-15 20:23:00,69.1,55.5,29.89,North,11,0.0,0.0,62,0.00,,SKC,0.00,VWS V14.01,2013-06-16 00:23:00,
2013-06-15 20:28:00,68.9,55.4,29.89,North,11,0.0,0.0,62,0.00,,SKC,0.00,VWS V14.01,2013-06-16 00:28:00,
2013-06-15 20:33:00,68.8,55.3,29.88,North,11,0.0,0.0,62,0.00,,SKC,0.00,VWS V14.01,2013-06-16 00:33:00,
2013-06-15 20:38:00,68.8,55.3,29.88,North,11,0.0,0.0,62,0.00,,SKC,0.00,VWS V14.01,2013-06-16 00:38:00,
2013-06-15 20:43:00,68.6,55.1,29.88,North,11,0.0,0.0,62,0.00,,SKC,0.00,VWS V14.01,2013-06-16 00:43:00,
2013-06-15 20:48:00,68.6,55.5,29.88,North,11,0.0,0.0,63,0.00,,SKC,0.00,VWS V14.01,2013-06-16 00:48:00,
2013-06-15 20:53:00,68.6,56.0,29.88,North,11,0.0,0.0,64,0.00,,SKC,0.00,VWS V14.01,2013-06-16 00:53:00,
2013-06-15 20:58:00,68.4,55.8,29.88,North,11,0.0,0.0,64,0.00,,SKC,0.00,VWS V14.01,2013-06-16 00:58:00,
2013-06-15 21:00:00,66.4,55.1,29.86,North,11,0.0,0.0,67,0.00,,SKC,0.00,VWS V14.01,2013-06-16 01:00:00,
2013-06-15 21:04:00,68.4,56.2,29.87,North,11,0.0,0.0,65,0.00,,SKC,0.00,VWS V14.01,2013-06-16 01:04:00,
2013-06-15 21:09:00,68.3,56.1,29.87,North,11,0.0,0.0,65,0.00,,SKC,0.00,VWS V14.01,2013-06-16 01:09:00,
2013-06-15 21:14:00,68.1,55.9,29.87,North,11,0.0,0.0,65,0.00,,SKC,0.00,VWS V14.01,2013-06-16 01:14:00,
2013-06-15 21:19:00,67.9,55.7,29.85,North,11,0.0,0.0,65,0.00,,SKC,0.00,VWS V14.01,2013-06-16 01:19:00,
2013-06-15 21:24:00,67.8,55.6,29.85,North,11,0.0,0.0,65,0.00,,SKC,0.00,VWS V14.01,2013-06-16 01:24:00,
2013-06-15 21:29:00,67.6,55.4,29.85,North,11,0.0,0.0,65,0.00,,SKC,0.00,VWS V14.01,2013-06-16 01:29:00,
2013-06-15 21:34:00,67.4,55.7,29.86,North,11,0.0,0.0,66,0.00,,SKC,0.00,VWS V14.01,2013-06-16 01:34:00,
2013-06-15 21:39:00,67.4,55.7,29.86,North,11,0.0,0.0,66,0.00,,SKC,0.00,VWS V14.01,2013-06-16 01:39:00,
2013-06-15 21:44:00,67.3,55.6,29.86,North,11,0.0,0.0,66,0.00,,SKC,0.00,VWS V14.01,2013-06-16 01:44:00,
2013-06-15 21:50:00,67.1,55.4,29.86,North,11,0.0,0.0,66,0.00,,SKC,0.00,VWS V14.01,2013-06-16 01:50:00,
2013-06-15 21:55:00,66.8,55.1,29.86,North,11,0.0,0.0,66,0.00,,SKC,0.00,VWS V14.01,2013-06-16 01:55:00,
2013-06-15 22:00:00,66.4,55.1,29.86,North,11,0.0,0.0,67,0.00,,SKC,0.00,VWS V14.01,2013-06-16 02:00:00,
2013-06-15 22:05:00,66.3,55.8,29.86,North,11,0.0,0.0,69,0.00,,SKC,0.00,VWS V14.01,2013-06-16 02:05:00,
2013-06-15 22:10:00,66.1,56.4,29.86,North,11,0.0,0.0,71,0.00,,SKC,0.00,VWS V14.01,2013-06-16 02:10:00,
2013-06-15 22:15:00,66.0,56.3,29.87,North,11,0.0,0.0,71,0.00,,SKC,0.00,VWS V14.01,2013-06-16 02:15:00,
2013-06-15 22:20:00,65.8,56.5,29.87,North,11,0.0,0.0,72,0.00,,SKC,0.00,VWS V14.01,2013-06-16 02:20:00,
2013-06-15 22:25:00,65.6,56.3,29.87,North,11,0.0,0.0,72,0.00,,SKC,0.00,VWS V14.01,2013-06-16 02:25:00,
2013-06-15 22:30:00,65.5,56.2,29.87,North,11,0.0,0.0,72,0.00,,SKC,0.00,VWS V14.01,2013-06-16 02:30:00,
2013-06-15 22:35:00,65.3,56.4,29.87,North,11,0.0,0.0,73,0.00,,SKC,0.00,VWS V14.01,2013-06-16 02:35:00,
2013-06-15 22:41:00,65.3,55.7,29.87,North,11,0.0,0.0,71,0.00,,SKC,0.00,VWS V14.01,2013-06-16 02:41:00,
2013-06-15 22:46:00,65.3,55.3,29.87,North,11,0.0,0.0,70,0.00,,SKC,0.00,VWS V14.01,2013-06-16 02:46:00,
2013-06-15 22:51:00,65.3,55.3,29.87,North,11,0.0,0.0,70,0.00,,SKC,0.00,VWS V14.01,2013-06-16 02:51:00,
2013-06-15 22:56:00,65.5,55.9,29.87,North,11,0.0,0.0,71,0.00,,SKC,0.00,VWS V14.01,2013-06-16 02:56:00,
2013-06-15 23:00:00,65.3,56.0,29.86,North,11,0.0,0.0,72,0.00,,SKC,0.00,VWS V14.01,2013-06-16 03:00:00,
2013-06-15 23:01:00,65.5,56.6,29.87,North,11,0.0,0.0,73,0.00,,SKC,0.00,VWS V14.01,2013-06-16 03:01:00,
2013-06-15 23:02:00,65.3,56.0,29.86,North,11,0.0,0.0,72,0.00,,SKC,0.00,VWS V14.01,2013-06-16 03:02:00,
2013-06-15 23:03:00,65.3,56.4,29.86,North,11,0.0,0.0,73,0.00,,SKC,0.00,VWS V14.01,2013-06-16 03:03:00,
2013-06-15 23:04:00,65.3,56.4,29.86,North,11,0.0,0.0,73,0.00,,SKC,0.00,VWS V14.01,2013-06-16 03:04:00,
2013-06-15 23:05:00,65.3,56.4,29.86,North,11,0.0,0.0,73,0.00,,SKC,0.00,VWS V14.01,2013-06-16 03:05:00,
2013-06-15 23:06:00,65.5,57.0,29.87,North,11,0.0,0.0,74,0.00,,SKC,0.00,VWS V14.01,2013-06-16 03:06:00,
2013-06-15 23:07:00,65.3,56.4,29.86,North,11,0.0,0.0,73,0.00,,SKC,0.00,VWS V14.01,2013-06-16 03:07:00,
2013-06-15 23:08:00,65.3,56.8,29.86,North,11,0.0,0.0,74,0.00,,SKC,0.00,VWS V14.01,2013-06-16 03:08:00,
2013-06-15 23:09:00,65.3,57.2,29.86,North,11,0.0,0.0,75,0.00,,SKC,0.00,VWS V14.01,2013-06-16 03:09:00,
2013-06-15 23:10:00,65.3,57.2,29.86,North,11,0.0,0.0,75,0.00,,SKC,0.00,VWS V14.01,2013-06-16 03:10:00,
2013-06-15 23:11:00,65.3,55.7,29.87,North,11,0.0,0.0,71,0.00,,SKC,0.00,VWS V14.01,2013-06-16 03:11:00,
2013-06-15 23:12:00,65.3,57.2,29.86,North,11,0.0,0.0,75,0.00,,SKC,0.00,VWS V14.01,2013-06-16 03:12:00,
2013-06-15 23:13:00,65.3,57.2,29.86,North,11,0.0,0.0,75,0.00,,SKC,0.00,VWS V14.01,2013-06-16 03:13:00,
2013-06-15 23:14:00,65.3,57.2,29.86,North,11,0.0,0.0,75,0.00,,SKC,0.00,VWS V14.01,2013-06-16 03:14:00,
2013-06-15 23:15:00,65.2,57.1,29.85,North,11,0.0,0.0,75,0.00,,SKC,0.00,VWS V14.01,2013-06-16 03:15:00,
2013-06-15 23:16:00,65.5,55.5,29.86,North,11,0.0,0.0,70,0.00,,SKC,0.00,VWS V14.01,2013-06-16 03:16:00,
2013-06-15 23:17:00,65.2,56.7,29.85,North,11,0.0,0.0,74,0.00,,SKC,0.00,VWS V14.01,2013-06-16 03:17:00,
2013-06-15 23:18:00,65.2,56.3,29.85,North,11,0.0,0.0,73,0.00,,SKC,0.00,VWS V14.01,2013-06-16 03:18:00,
2013-06-15 23:20:00,65.2,56.3,29.85,North,11,0.0,0.0,73,0.00,,SKC,0.00,VWS V14.01,2013-06-16 03:20:00,
2013-06-15 23:21:00,65.6,55.6,29.86,North,11,0.0,0.0,70,0.00,,SKC,0.00,VWS V14.01,2013-06-16 03:21:00,
2013-06-15 23:22:00,65.2,56.0,29.85,North,11,0.0,0.0,72,0.00,,SKC,0.00,VWS V14.01,2013-06-16 03:22:00,
2013-06-15 23:23:00,65.2,56.0,29.85,North,11,0.0,0.0,72,0.00,,SKC,0.00,VWS V14.01,2013-06-16 03:23:00,
2013-06-15 23:26:00,65.6,56.0,29.86,North,11,0.0,0.0,71,0.00,,SKC,0.00,VWS V14.01,2013-06-16 03:26:00,
2013-06-15 23:32:00,65.6,56.0,29.86,North,11,0.0,0.0,71,0.00,,SKC,0.00,VWS V14.01,2013-06-16 03:32:00,
2013-06-15 23:37:00,65.5,56.2,29.86,North,11,0.0,0.0,72,0.00,,SKC,0.00,VWS V14.01,2013-06-16 03:37:00,
2013-06-15 23:42:00,65.5,56.6,29.86,North,11,0.0,0.0,73,0.00,,SKC,0.00,VWS V14.01,2013-06-16 03:42:00,
2013-06-15 23:47:00,65.3,56.0,29.86,North,11,0.0,0.0,72,0.00,,SKC,0.00,VWS V14.01,2013-06-16 03:47:00,
2013-06-15 23:52:00,65.3,56.0,29.86,North,11,0.0,0.0,72,0.00,,SKC,0.00,VWS V14.01,2013-06-16 03:52:00,
2013-06-15 23:57:00,65.3,56.0,29.86,North,11,0.0,0.0,72,0.00,,SKC,0.00,VWS V14.01,2013-06-16 03:57:00,